sensor_id;sensor_type;location;lat;lon;timestamp;P1;durP1;ratioP1;P2;durP2;ratioP2
76729;SDS011;65653;53.106;18.046;2023-04-25T00:00:26;17.50;;;12.10;;
76729;SDS011;65653;53.106;18.046;2023-04-25T00:03:14;17.80;;;13.10;;
76729;SDS011;65653;53.106;18.046;2023-04-25T00:05:40;18.90;;;13.40;;
76729;SDS011;65653;53.106;18.046;2023-04-25T00:08:07;19.10;;;12.20;;
76729;SDS011;65653;53.106;18.046;2023-04-25T00:10:34;20.30;;;12.50;;
76729;SDS011;65653;53.106;18.046;2023-04-25T00:13:01;21.90;;;14.80;;
76729;SDS011;65653;53.106;18.046;2023-04-25T00:15:28;17.00;;;12.00;;
76729;SDS011;65653;53.106;18.046;2023-04-25T00:17:58;15.20;;;11.30;;
76729;SDS011;65653;53.106;18.046;2023-04-25T00:20:24;16.60;;;10.60;;
76729;SDS011;65653;53.106;18.046;2023-04-25T00:22:51;18.90;;;12.90;;
76729;SDS011;65653;53.106;18.046;2023-04-25T00:25:19;16.40;;;12.10;;
76729;SDS011;65653;53.106;18.046;2023-04-25T00:27:46;15.90;;;11.40;;
76729;SDS011;65653;53.106;18.046;2023-04-25T00:30:13;17.40;;;11.70;;
76729;SDS011;65653;53.106;18.046;2023-04-25T00:32:40;12.20;;;9.40;;
76729;SDS011;65653;53.106;18.046;2023-04-25T00:35:07;12.20;;;9.10;;
76729;SDS011;65653;53.106;18.046;2023-04-25T00:37:34;10.60;;;7.60;;
76729;SDS011;65653;53.106;18.046;2023-04-25T00:40:01;12.20;;;8.00;;
76729;SDS011;65653;53.106;18.046;2023-04-25T00:42:28;8.80;;;6.10;;
76729;SDS011;65653;53.106;18.046;2023-04-25T00:44:56;9.90;;;6.80;;
76729;SDS011;65653;53.106;18.046;2023-04-25T00:47:24;7.00;;;4.90;;
76729;SDS011;65653;53.106;18.046;2023-04-25T00:49:52;8.00;;;6.20;;
76729;SDS011;65653;53.106;18.046;2023-04-25T00:52:19;7.00;;;5.30;;
76729;SDS011;65653;53.106;18.046;2023-04-25T00:54:46;10.30;;;7.10;;
76729;SDS011;65653;53.106;18.046;2023-04-25T00:57:13;10.80;;;7.90;;
76729;SDS011;65653;53.106;18.046;2023-04-25T00:59:41;7.50;;;5.60;;
76729;SDS011;65653;53.106;18.046;2023-04-25T01:02:12;8.70;;;5.80;;
76729;SDS011;65653;53.106;18.046;2023-04-25T01:04:39;9.00;;;6.90;;
76729;SDS011;65653;53.106;18.046;2023-04-25T01:07:05;10.70;;;7.70;;
76729;SDS011;65653;53.106;18.046;2023-04-25T01:09:32;9.00;;;6.80;;
76729;SDS011;65653;53.106;18.046;2023-04-25T01:11:59;7.20;;;5.20;;
76729;SDS011;65653;53.106;18.046;2023-04-25T01:14:27;7.60;;;5.70;;
76729;SDS011;65653;53.106;18.046;2023-04-25T01:16:54;14.70;;;6.10;;
76729;SDS011;65653;53.106;18.046;2023-04-25T01:19:20;7.20;;;5.80;;
76729;SDS011;65653;53.106;18.046;2023-04-25T01:21:47;9.40;;;6.40;;
76729;SDS011;65653;53.106;18.046;2023-04-25T01:24:14;6.40;;;3.70;;
76729;SDS011;65653;53.106;18.046;2023-04-25T01:26:41;7.20;;;5.40;;
76729;SDS011;65653;53.106;18.046;2023-04-25T01:29:19;10.00;;;6.00;;
76729;SDS011;65653;53.106;18.046;2023-04-25T01:31:46;7.60;;;6.00;;
76729;SDS011;65653;53.106;18.046;2023-04-25T01:34:13;7.30;;;5.60;;
76729;SDS011;65653;53.106;18.046;2023-04-25T01:36:39;6.20;;;5.50;;
76729;SDS011;65653;53.106;18.046;2023-04-25T01:39:06;9.10;;;6.30;;
76729;SDS011;65653;53.106;18.046;2023-04-25T01:41:34;7.20;;;5.90;;
76729;SDS011;65653;53.106;18.046;2023-04-25T01:44:01;8.30;;;5.10;;
76729;SDS011;65653;53.106;18.046;2023-04-25T01:46:28;7.80;;;4.70;;
76729;SDS011;65653;53.106;18.046;2023-04-25T01:48:57;6.90;;;5.30;;
76729;SDS011;65653;53.106;18.046;2023-04-25T01:51:23;8.20;;;6.10;;
76729;SDS011;65653;53.106;18.046;2023-04-25T01:53:50;7.20;;;5.10;;
76729;SDS011;65653;53.106;18.046;2023-04-25T01:56:17;6.20;;;4.30;;
76729;SDS011;65653;53.106;18.046;2023-04-25T01:58:45;9.20;;;6.90;;
76729;SDS011;65653;53.106;18.046;2023-04-25T02:01:12;9.00;;;6.50;;
76729;SDS011;65653;53.106;18.046;2023-04-25T02:03:39;8.20;;;5.20;;
76729;SDS011;65653;53.106;18.046;2023-04-25T02:06:06;8.90;;;5.80;;
76729;SDS011;65653;53.106;18.046;2023-04-25T02:08:33;7.70;;;5.90;;
76729;SDS011;65653;53.106;18.046;2023-04-25T02:11:00;5.60;;;4.30;;
76729;SDS011;65653;53.106;18.046;2023-04-25T02:13:26;6.30;;;4.80;;
76729;SDS011;65653;53.106;18.046;2023-04-25T02:15:53;5.70;;;4.80;;
76729;SDS011;65653;53.106;18.046;2023-04-25T02:18:19;6.40;;;4.50;;
76729;SDS011;65653;53.106;18.046;2023-04-25T02:20:47;6.30;;;5.00;;
76729;SDS011;65653;53.106;18.046;2023-04-25T02:23:14;5.40;;;4.20;;
76729;SDS011;65653;53.106;18.046;2023-04-25T02:25:41;5.50;;;4.30;;
76729;SDS011;65653;53.106;18.046;2023-04-25T02:28:08;9.20;;;6.30;;
76729;SDS011;65653;53.106;18.046;2023-04-25T02:30:35;6.80;;;4.90;;
76729;SDS011;65653;53.106;18.046;2023-04-25T02:33:02;4.90;;;4.30;;
76729;SDS011;65653;53.106;18.046;2023-04-25T02:35:28;4.50;;;3.90;;
76729;SDS011;65653;53.106;18.046;2023-04-25T02:37:55;6.40;;;3.50;;
76729;SDS011;65653;53.106;18.046;2023-04-25T02:40:21;6.20;;;3.60;;
76729;SDS011;65653;53.106;18.046;2023-04-25T02:42:48;5.20;;;3.70;;
76729;SDS011;65653;53.106;18.046;2023-04-25T02:45:14;4.40;;;3.60;;
76729;SDS011;65653;53.106;18.046;2023-04-25T02:47:41;4.90;;;3.80;;
76729;SDS011;65653;53.106;18.046;2023-04-25T02:50:07;3.90;;;2.90;;
76729;SDS011;65653;53.106;18.046;2023-04-25T02:52:34;5.50;;;3.20;;
76729;SDS011;65653;53.106;18.046;2023-04-25T02:55:00;4.90;;;2.90;;
76729;SDS011;65653;53.106;18.046;2023-04-25T02:57:27;3.70;;;2.90;;
76729;SDS011;65653;53.106;18.046;2023-04-25T02:59:53;4.50;;;3.60;;
76729;SDS011;65653;53.106;18.046;2023-04-25T03:02:20;2.90;;;2.70;;
76729;SDS011;65653;53.106;18.046;2023-04-25T03:04:46;4.10;;;2.90;;
76729;SDS011;65653;53.106;18.046;2023-04-25T03:07:13;4.30;;;3.00;;
76729;SDS011;65653;53.106;18.046;2023-04-25T03:09:40;2.80;;;2.50;;
76729;SDS011;65653;53.106;18.046;2023-04-25T03:12:06;3.00;;;2.70;;
76729;SDS011;65653;53.106;18.046;2023-04-25T03:14:33;3.00;;;2.40;;
76729;SDS011;65653;53.106;18.046;2023-04-25T03:16:59;2.60;;;2.10;;
76729;SDS011;65653;53.106;18.046;2023-04-25T03:19:25;3.40;;;2.20;;
76729;SDS011;65653;53.106;18.046;2023-04-25T03:21:52;3.10;;;2.00;;
76729;SDS011;65653;53.106;18.046;2023-04-25T03:24:19;2.40;;;2.20;;
76729;SDS011;65653;53.106;18.046;2023-04-25T03:26:46;2.70;;;2.10;;
76729;SDS011;65653;53.106;18.046;2023-04-25T03:29:13;2.20;;;1.50;;
76729;SDS011;65653;53.106;18.046;2023-04-25T03:31:39;2.30;;;1.70;;
76729;SDS011;65653;53.106;18.046;2023-04-25T03:34:06;3.00;;;1.90;;
76729;SDS011;65653;53.106;18.046;2023-04-25T03:36:32;2.50;;;2.30;;
76729;SDS011;65653;53.106;18.046;2023-04-25T03:38:59;1.60;;;1.40;;
76729;SDS011;65653;53.106;18.046;2023-04-25T03:41:25;1.80;;;1.30;;
76729;SDS011;65653;53.106;18.046;2023-04-25T03:43:52;1.60;;;1.50;;
76729;SDS011;65653;53.106;18.046;2023-04-25T03:46:18;2.10;;;1.90;;
76729;SDS011;65653;53.106;18.046;2023-04-25T03:48:45;2.60;;;1.90;;
76729;SDS011;65653;53.106;18.046;2023-04-25T03:51:11;2.20;;;1.80;;
76729;SDS011;65653;53.106;18.046;2023-04-25T03:53:38;4.00;;;2.60;;
76729;SDS011;65653;53.106;18.046;2023-04-25T03:56:04;3.60;;;2.30;;
76729;SDS011;65653;53.106;18.046;2023-04-25T03:58:31;3.50;;;2.30;;
76729;SDS011;65653;53.106;18.046;2023-04-25T04:00:58;3.50;;;2.70;;
76729;SDS011;65653;53.106;18.046;2023-04-25T04:03:24;2.90;;;2.50;;
76729;SDS011;65653;53.106;18.046;2023-04-25T04:05:51;3.10;;;2.40;;
76729;SDS011;65653;53.106;18.046;2023-04-25T04:08:17;3.50;;;2.10;;
76729;SDS011;65653;53.106;18.046;2023-04-25T04:10:44;4.10;;;2.20;;
76729;SDS011;65653;53.106;18.046;2023-04-25T04:13:10;2.80;;;1.80;;
76729;SDS011;65653;53.106;18.046;2023-04-25T04:15:37;2.40;;;1.50;;
76729;SDS011;65653;53.106;18.046;2023-04-25T04:18:04;2.00;;;1.50;;
76729;SDS011;65653;53.106;18.046;2023-04-25T04:20:32;1.90;;;1.70;;
76729;SDS011;65653;53.106;18.046;2023-04-25T04:22:58;3.20;;;1.80;;
76729;SDS011;65653;53.106;18.046;2023-04-25T04:25:25;2.50;;;1.90;;
76729;SDS011;65653;53.106;18.046;2023-04-25T04:27:52;1.80;;;1.60;;
76729;SDS011;65653;53.106;18.046;2023-04-25T04:30:21;3.20;;;1.70;;
76729;SDS011;65653;53.106;18.046;2023-04-25T04:32:50;2.20;;;2.00;;
76729;SDS011;65653;53.106;18.046;2023-04-25T04:35:17;2.20;;;1.90;;
76729;SDS011;65653;53.106;18.046;2023-04-25T04:37:44;2.30;;;2.00;;
76729;SDS011;65653;53.106;18.046;2023-04-25T04:40:11;3.10;;;2.10;;
76729;SDS011;65653;53.106;18.046;2023-04-25T04:42:38;1.60;;;1.40;;
76729;SDS011;65653;53.106;18.046;2023-04-25T04:45:04;3.40;;;2.40;;
76729;SDS011;65653;53.106;18.046;2023-04-25T04:47:31;2.60;;;2.00;;
76729;SDS011;65653;53.106;18.046;2023-04-25T04:49:58;4.80;;;2.70;;
76729;SDS011;65653;53.106;18.046;2023-04-25T04:52:25;1.40;;;1.20;;
76729;SDS011;65653;53.106;18.046;2023-04-25T04:54:51;2.40;;;1.40;;
76729;SDS011;65653;53.106;18.046;2023-04-25T04:57:18;2.80;;;2.10;;
76729;SDS011;65653;53.106;18.046;2023-04-25T04:59:44;2.20;;;1.30;;
76729;SDS011;65653;53.106;18.046;2023-04-25T05:02:11;3.60;;;2.00;;
76729;SDS011;65653;53.106;18.046;2023-04-25T05:04:37;2.90;;;2.20;;
76729;SDS011;65653;53.106;18.046;2023-04-25T05:07:04;2.60;;;1.60;;
76729;SDS011;65653;53.106;18.046;2023-04-25T05:09:30;3.40;;;1.80;;
76729;SDS011;65653;53.106;18.046;2023-04-25T05:11:57;2.20;;;1.60;;
76729;SDS011;65653;53.106;18.046;2023-04-25T05:14:23;2.00;;;1.80;;
76729;SDS011;65653;53.106;18.046;2023-04-25T05:16:50;1.10;;;1.00;;
76729;SDS011;65653;53.106;18.046;2023-04-25T05:19:16;1.50;;;1.40;;
76729;SDS011;65653;53.106;18.046;2023-04-25T05:21:43;2.40;;;1.70;;
76729;SDS011;65653;53.106;18.046;2023-04-25T05:24:09;4.10;;;1.60;;
76729;SDS011;65653;53.106;18.046;2023-04-25T05:26:36;2.40;;;1.50;;
76729;SDS011;65653;53.106;18.046;2023-04-25T05:29:03;3.50;;;1.90;;
76729;SDS011;65653;53.106;18.046;2023-04-25T05:31:31;1.90;;;1.40;;
76729;SDS011;65653;53.106;18.046;2023-04-25T05:34:01;2.00;;;1.50;;
76729;SDS011;65653;53.106;18.046;2023-04-25T05:36:29;2.10;;;1.10;;
76729;SDS011;65653;53.106;18.046;2023-04-25T05:38:57;2.50;;;1.60;;
76729;SDS011;65653;53.106;18.046;2023-04-25T05:41:23;2.10;;;1.30;;
76729;SDS011;65653;53.106;18.046;2023-04-25T05:43:50;1.60;;;1.00;;
76729;SDS011;65653;53.106;18.046;2023-04-25T05:46:17;1.50;;;1.30;;
76729;SDS011;65653;53.106;18.046;2023-04-25T05:48:44;3.10;;;1.70;;
76729;SDS011;65653;53.106;18.046;2023-04-25T05:51:10;4.40;;;1.60;;
76729;SDS011;65653;53.106;18.046;2023-04-25T05:53:37;3.20;;;1.60;;
76729;SDS011;65653;53.106;18.046;2023-04-25T05:56:03;1.50;;;1.40;;
76729;SDS011;65653;53.106;18.046;2023-04-25T05:58:30;3.40;;;1.20;;
76729;SDS011;65653;53.106;18.046;2023-04-25T06:00:57;3.00;;;1.90;;
76729;SDS011;65653;53.106;18.046;2023-04-25T06:03:24;3.10;;;1.80;;
76729;SDS011;65653;53.106;18.046;2023-04-25T06:05:51;2.80;;;1.40;;
76729;SDS011;65653;53.106;18.046;2023-04-25T06:08:18;2.40;;;1.70;;
76729;SDS011;65653;53.106;18.046;2023-04-25T06:10:45;1.80;;;1.70;;
76729;SDS011;65653;53.106;18.046;2023-04-25T06:13:11;2.50;;;1.70;;
76729;SDS011;65653;53.106;18.046;2023-04-25T06:15:39;1.60;;;1.10;;
76729;SDS011;65653;53.106;18.046;2023-04-25T06:18:06;1.90;;;1.10;;
76729;SDS011;65653;53.106;18.046;2023-04-25T06:20:33;1.60;;;1.50;;
76729;SDS011;65653;53.106;18.046;2023-04-25T06:22:59;3.50;;;1.70;;
76729;SDS011;65653;53.106;18.046;2023-04-25T06:25:26;2.80;;;1.60;;
76729;SDS011;65653;53.106;18.046;2023-04-25T06:27:52;2.10;;;1.50;;
76729;SDS011;65653;53.106;18.046;2023-04-25T06:30:19;2.00;;;1.50;;
76729;SDS011;65653;53.106;18.046;2023-04-25T06:32:48;1.90;;;1.20;;
76729;SDS011;65653;53.106;18.046;2023-04-25T06:35:15;3.90;;;1.90;;
76729;SDS011;65653;53.106;18.046;2023-04-25T06:37:42;2.20;;;1.10;;
76729;SDS011;65653;53.106;18.046;2023-04-25T06:40:09;1.60;;;1.20;;
76729;SDS011;65653;53.106;18.046;2023-04-25T06:42:35;1.70;;;1.40;;
76729;SDS011;65653;53.106;18.046;2023-04-25T06:45:02;2.50;;;1.60;;
76729;SDS011;65653;53.106;18.046;2023-04-25T06:47:29;1.90;;;1.20;;
76729;SDS011;65653;53.106;18.046;2023-04-25T06:49:56;1.70;;;1.20;;
76729;SDS011;65653;53.106;18.046;2023-04-25T06:52:22;1.90;;;1.50;;
76729;SDS011;65653;53.106;18.046;2023-04-25T06:54:49;3.10;;;1.90;;
76729;SDS011;65653;53.106;18.046;2023-04-25T06:57:16;2.50;;;1.60;;
76729;SDS011;65653;53.106;18.046;2023-04-25T06:59:42;2.10;;;1.20;;
76729;SDS011;65653;53.106;18.046;2023-04-25T07:02:09;4.30;;;1.90;;
76729;SDS011;65653;53.106;18.046;2023-04-25T07:04:36;3.40;;;1.40;;
76729;SDS011;65653;53.106;18.046;2023-04-25T07:07:02;5.10;;;1.70;;
76729;SDS011;65653;53.106;18.046;2023-04-25T07:09:29;1.60;;;1.50;;
76729;SDS011;65653;53.106;18.046;2023-04-25T07:11:56;2.80;;;1.50;;
76729;SDS011;65653;53.106;18.046;2023-04-25T07:14:22;2.60;;;1.30;;
76729;SDS011;65653;53.106;18.046;2023-04-25T07:16:49;2.50;;;1.70;;
76729;SDS011;65653;53.106;18.046;2023-04-25T07:19:16;1.60;;;1.40;;
76729;SDS011;65653;53.106;18.046;2023-04-25T07:21:42;1.90;;;1.30;;
76729;SDS011;65653;53.106;18.046;2023-04-25T07:24:09;1.20;;;1.10;;
76729;SDS011;65653;53.106;18.046;2023-04-25T07:26:35;3.90;;;1.20;;
76729;SDS011;65653;53.106;18.046;2023-04-25T07:29:02;1.20;;;1.00;;
76729;SDS011;65653;53.106;18.046;2023-04-25T07:31:28;1.40;;;1.30;;
76729;SDS011;65653;53.106;18.046;2023-04-25T07:33:55;1.50;;;1.40;;
76729;SDS011;65653;53.106;18.046;2023-04-25T07:36:21;2.80;;;1.70;;
76729;SDS011;65653;53.106;18.046;2023-04-25T07:38:48;2.70;;;1.20;;
76729;SDS011;65653;53.106;18.046;2023-04-25T07:41:15;1.10;;;1.00;;
76729;SDS011;65653;53.106;18.046;2023-04-25T07:43:42;2.20;;;1.00;;
76729;SDS011;65653;53.106;18.046;2023-04-25T07:46:08;1.40;;;1.10;;
76729;SDS011;65653;53.106;18.046;2023-04-25T07:48:35;1.40;;;1.30;;
76729;SDS011;65653;53.106;18.046;2023-04-25T07:51:01;2.40;;;1.30;;
76729;SDS011;65653;53.106;18.046;2023-04-25T07:53:32;1.40;;;0.90;;
76729;SDS011;65653;53.106;18.046;2023-04-25T07:56:01;1.40;;;1.20;;
76729;SDS011;65653;53.106;18.046;2023-04-25T07:58:27;3.50;;;1.70;;
76729;SDS011;65653;53.106;18.046;2023-04-25T08:00:53;1.50;;;1.00;;
76729;SDS011;65653;53.106;18.046;2023-04-25T08:03:20;2.00;;;1.30;;
76729;SDS011;65653;53.106;18.046;2023-04-25T08:05:47;2.50;;;1.60;;
76729;SDS011;65653;53.106;18.046;2023-04-25T08:08:14;1.70;;;1.50;;
76729;SDS011;65653;53.106;18.046;2023-04-25T08:10:40;3.60;;;1.60;;
76729;SDS011;65653;53.106;18.046;2023-04-25T08:13:07;3.90;;;1.20;;
76729;SDS011;65653;53.106;18.046;2023-04-25T08:15:34;2.10;;;1.30;;
76729;SDS011;65653;53.106;18.046;2023-04-25T08:18:01;2.70;;;1.30;;
76729;SDS011;65653;53.106;18.046;2023-04-25T08:20:27;2.20;;;1.50;;
76729;SDS011;65653;53.106;18.046;2023-04-25T08:22:54;5.60;;;1.90;;
76729;SDS011;65653;53.106;18.046;2023-04-25T08:25:21;2.50;;;1.50;;
76729;SDS011;65653;53.106;18.046;2023-04-25T08:27:48;2.00;;;1.50;;
76729;SDS011;65653;53.106;18.046;2023-04-25T08:30:14;1.90;;;1.30;;
76729;SDS011;65653;53.106;18.046;2023-04-25T08:32:41;2.60;;;1.90;;
76729;SDS011;65653;53.106;18.046;2023-04-25T08:35:07;4.80;;;2.10;;
76729;SDS011;65653;53.106;18.046;2023-04-25T08:37:34;4.00;;;1.70;;
76729;SDS011;65653;53.106;18.046;2023-04-25T08:40:01;2.90;;;1.50;;
76729;SDS011;65653;53.106;18.046;2023-04-25T08:42:27;3.30;;;1.70;;
76729;SDS011;65653;53.106;18.046;2023-04-25T08:44:55;2.20;;;1.40;;
76729;SDS011;65653;53.106;18.046;2023-04-25T08:47:22;2.30;;;1.20;;
76729;SDS011;65653;53.106;18.046;2023-04-25T08:49:50;2.60;;;1.50;;
76729;SDS011;65653;53.106;18.046;2023-04-25T08:52:21;2.10;;;1.80;;
76729;SDS011;65653;53.106;18.046;2023-04-25T08:54:50;3.70;;;1.80;;
76729;SDS011;65653;53.106;18.046;2023-04-25T08:57:18;3.40;;;1.50;;
76729;SDS011;65653;53.106;18.046;2023-04-25T08:59:46;1.60;;;1.20;;
76729;SDS011;65653;53.106;18.046;2023-04-25T09:02:13;3.60;;;1.50;;
76729;SDS011;65653;53.106;18.046;2023-04-25T09:04:43;3.60;;;1.60;;
76729;SDS011;65653;53.106;18.046;2023-04-25T09:07:10;2.40;;;1.50;;
76729;SDS011;65653;53.106;18.046;2023-04-25T09:09:37;1.80;;;1.70;;
76729;SDS011;65653;53.106;18.046;2023-04-25T09:12:03;1.60;;;1.20;;
76729;SDS011;65653;53.106;18.046;2023-04-25T09:14:31;1.90;;;1.20;;
76729;SDS011;65653;53.106;18.046;2023-04-25T09:16:58;3.00;;;1.20;;
76729;SDS011;65653;53.106;18.046;2023-04-25T09:19:27;3.10;;;1.70;;
76729;SDS011;65653;53.106;18.046;2023-04-25T09:21:56;1.80;;;1.20;;
76729;SDS011;65653;53.106;18.046;2023-04-25T09:24:35;1.50;;;1.00;;
76729;SDS011;65653;53.106;18.046;2023-04-25T09:27:03;3.20;;;1.10;;
76729;SDS011;65653;53.106;18.046;2023-04-25T09:29:32;1.40;;;1.20;;
76729;SDS011;65653;53.106;18.046;2023-04-25T09:32:10;1.70;;;1.20;;
76729;SDS011;65653;53.106;18.046;2023-04-25T09:34:51;1.50;;;1.20;;
76729;SDS011;65653;53.106;18.046;2023-04-25T09:37:19;2.10;;;1.60;;
76729;SDS011;65653;53.106;18.046;2023-04-25T09:39:48;3.20;;;1.50;;
76729;SDS011;65653;53.106;18.046;2023-04-25T09:42:17;2.20;;;1.20;;
76729;SDS011;65653;53.106;18.046;2023-04-25T09:44:44;1.00;;;0.90;;
76729;SDS011;65653;53.106;18.046;2023-04-25T09:47:12;2.20;;;1.10;;
76729;SDS011;65653;53.106;18.046;2023-04-25T09:49:42;2.70;;;1.50;;
76729;SDS011;65653;53.106;18.046;2023-04-25T09:52:09;1.80;;;1.10;;
76729;SDS011;65653;53.106;18.046;2023-04-25T09:54:41;2.10;;;1.50;;
76729;SDS011;65653;53.106;18.046;2023-04-25T09:57:15;2.20;;;1.50;;
76729;SDS011;65653;53.106;18.046;2023-04-25T09:59:43;1.30;;;1.10;;
76729;SDS011;65653;53.106;18.046;2023-04-25T10:02:16;2.80;;;1.50;;
76729;SDS011;65653;53.106;18.046;2023-04-25T10:04:47;2.10;;;1.40;;
76729;SDS011;65653;53.106;18.046;2023-04-25T10:07:17;2.30;;;1.50;;
76729;SDS011;65653;53.106;18.046;2023-04-25T10:09:48;1.80;;;1.30;;
76729;SDS011;65653;53.106;18.046;2023-04-25T10:12:18;2.20;;;1.50;;
76729;SDS011;65653;53.106;18.046;2023-04-25T10:14:46;2.20;;;2.00;;
76729;SDS011;65653;53.106;18.046;2023-04-25T10:17:13;4.20;;;1.80;;
76729;SDS011;65653;53.106;18.046;2023-04-25T10:19:40;2.30;;;1.50;;
76729;SDS011;65653;53.106;18.046;2023-04-25T10:22:08;2.10;;;1.40;;
76729;SDS011;65653;53.106;18.046;2023-04-25T10:24:42;2.20;;;1.20;;
76729;SDS011;65653;53.106;18.046;2023-04-25T10:27:10;3.10;;;1.70;;
76729;SDS011;65653;53.106;18.046;2023-04-25T10:29:37;1.60;;;1.00;;
76729;SDS011;65653;53.106;18.046;2023-04-25T10:32:04;2.70;;;1.50;;
76729;SDS011;65653;53.106;18.046;2023-04-25T10:34:42;3.90;;;1.70;;
76729;SDS011;65653;53.106;18.046;2023-04-25T10:37:13;3.40;;;1.90;;
76729;SDS011;65653;53.106;18.046;2023-04-25T10:39:40;2.70;;;1.10;;
76729;SDS011;65653;53.106;18.046;2023-04-25T10:42:11;2.50;;;1.50;;
76729;SDS011;65653;53.106;18.046;2023-04-25T10:44:41;4.10;;;1.70;;
76729;SDS011;65653;53.106;18.046;2023-04-25T10:47:38;3.10;;;1.70;;
76729;SDS011;65653;53.106;18.046;2023-04-25T10:50:16;1.40;;;1.00;;
76729;SDS011;65653;53.106;18.046;2023-04-25T10:52:43;1.80;;;1.40;;
76729;SDS011;65653;53.106;18.046;2023-04-25T10:55:10;2.00;;;1.70;;
76729;SDS011;65653;53.106;18.046;2023-04-25T10:57:40;1.30;;;1.20;;
76729;SDS011;65653;53.106;18.046;2023-04-25T11:00:13;2.20;;;1.70;;
76729;SDS011;65653;53.106;18.046;2023-04-25T11:05:32;2.70;;;1.50;;
76729;SDS011;65653;53.106;18.046;2023-04-25T11:08:00;1.10;;;1.00;;
76729;SDS011;65653;53.106;18.046;2023-04-25T11:10:30;2.20;;;1.60;;
76729;SDS011;65653;53.106;18.046;2023-04-25T11:12:58;3.30;;;1.40;;
76729;SDS011;65653;53.106;18.046;2023-04-25T11:15:26;1.60;;;1.10;;
76729;SDS011;65653;53.106;18.046;2023-04-25T11:17:53;1.30;;;1.10;;
76729;SDS011;65653;53.106;18.046;2023-04-25T11:20:20;1.30;;;1.00;;
76729;SDS011;65653;53.106;18.046;2023-04-25T11:22:48;1.90;;;1.20;;
76729;SDS011;65653;53.106;18.046;2023-04-25T11:25:15;2.70;;;1.40;;
76729;SDS011;65653;53.106;18.046;2023-04-25T11:27:49;2.90;;;1.60;;
76729;SDS011;65653;53.106;18.046;2023-04-25T11:30:20;2.90;;;1.40;;
76729;SDS011;65653;53.106;18.046;2023-04-25T11:32:48;1.90;;;1.30;;
76729;SDS011;65653;53.106;18.046;2023-04-25T11:35:14;3.00;;;1.30;;
76729;SDS011;65653;53.106;18.046;2023-04-25T11:37:42;1.90;;;1.30;;
76729;SDS011;65653;53.106;18.046;2023-04-25T11:40:10;2.20;;;1.30;;
76729;SDS011;65653;53.106;18.046;2023-04-25T11:42:38;3.90;;;1.30;;
76729;SDS011;65653;53.106;18.046;2023-04-25T11:45:06;4.00;;;1.60;;
76729;SDS011;65653;53.106;18.046;2023-04-25T11:47:33;3.50;;;1.90;;
76729;SDS011;65653;53.106;18.046;2023-04-25T11:50:03;2.50;;;1.40;;
76729;SDS011;65653;53.106;18.046;2023-04-25T11:52:45;2.50;;;1.50;;
76729;SDS011;65653;53.106;18.046;2023-04-25T11:55:19;1.70;;;1.20;;
76729;SDS011;65653;53.106;18.046;2023-04-25T11:57:47;2.60;;;1.30;;
76729;SDS011;65653;53.106;18.046;2023-04-25T12:00:17;2.20;;;1.70;;
76729;SDS011;65653;53.106;18.046;2023-04-25T12:02:47;1.00;;;1.00;;
76729;SDS011;65653;53.106;18.046;2023-04-25T12:05:19;2.50;;;1.70;;
76729;SDS011;65653;53.106;18.046;2023-04-25T12:07:46;2.10;;;1.50;;
76729;SDS011;65653;53.106;18.046;2023-04-25T12:10:15;2.40;;;1.50;;
76729;SDS011;65653;53.106;18.046;2023-04-25T12:12:44;1.80;;;1.40;;
76729;SDS011;65653;53.106;18.046;2023-04-25T12:15:16;2.10;;;1.30;;
76729;SDS011;65653;53.106;18.046;2023-04-25T12:17:46;2.30;;;1.40;;
76729;SDS011;65653;53.106;18.046;2023-04-25T12:20:14;2.70;;;1.70;;
76729;SDS011;65653;53.106;18.046;2023-04-25T12:22:45;1.10;;;0.90;;
76729;SDS011;65653;53.106;18.046;2023-04-25T12:25:13;1.30;;;0.90;;
76729;SDS011;65653;53.106;18.046;2023-04-25T12:28:17;1.30;;;1.00;;
76729;SDS011;65653;53.106;18.046;2023-04-25T12:30:55;1.50;;;1.10;;
76729;SDS011;65653;53.106;18.046;2023-04-25T12:33:25;1.40;;;0.90;;
76729;SDS011;65653;53.106;18.046;2023-04-25T12:35:54;3.60;;;1.60;;
76729;SDS011;65653;53.106;18.046;2023-04-25T12:40:57;2.00;;;1.20;;
76729;SDS011;65653;53.106;18.046;2023-04-25T12:43:24;1.80;;;1.20;;
76729;SDS011;65653;53.106;18.046;2023-04-25T12:45:51;1.70;;;1.10;;
76729;SDS011;65653;53.106;18.046;2023-04-25T12:48:19;3.10;;;1.20;;
76729;SDS011;65653;53.106;18.046;2023-04-25T12:50:47;2.80;;;1.20;;
76729;SDS011;65653;53.106;18.046;2023-04-25T12:53:15;2.60;;;1.10;;
76729;SDS011;65653;53.106;18.046;2023-04-25T12:55:43;2.10;;;1.20;;
76729;SDS011;65653;53.106;18.046;2023-04-25T12:58:12;2.40;;;1.00;;
76729;SDS011;65653;53.106;18.046;2023-04-25T13:00:42;2.80;;;1.10;;
76729;SDS011;65653;53.106;18.046;2023-04-25T13:03:09;1.20;;;0.90;;
76729;SDS011;65653;53.106;18.046;2023-04-25T13:05:37;0.90;;;0.80;;
76729;SDS011;65653;53.106;18.046;2023-04-25T13:08:04;1.70;;;0.90;;
76729;SDS011;65653;53.106;18.046;2023-04-25T13:10:31;2.40;;;0.90;;
76729;SDS011;65653;53.106;18.046;2023-04-25T13:13:00;2.40;;;1.10;;
76729;SDS011;65653;53.106;18.046;2023-04-25T13:15:27;2.50;;;1.10;;
76729;SDS011;65653;53.106;18.046;2023-04-25T13:17:53;1.80;;;1.20;;
76729;SDS011;65653;53.106;18.046;2023-04-25T13:20:20;1.70;;;1.30;;
76729;SDS011;65653;53.106;18.046;2023-04-25T13:22:48;1.30;;;1.20;;
76729;SDS011;65653;53.106;18.046;2023-04-25T13:25:14;2.30;;;1.40;;
76729;SDS011;65653;53.106;18.046;2023-04-25T13:27:42;1.60;;;1.30;;
76729;SDS011;65653;53.106;18.046;2023-04-25T13:30:10;2.50;;;1.40;;
76729;SDS011;65653;53.106;18.046;2023-04-25T13:32:37;1.40;;;1.30;;
76729;SDS011;65653;53.106;18.046;2023-04-25T13:35:05;3.20;;;2.00;;
76729;SDS011;65653;53.106;18.046;2023-04-25T13:37:33;2.40;;;1.70;;
76729;SDS011;65653;53.106;18.046;2023-04-25T13:40:00;3.00;;;1.30;;
76729;SDS011;65653;53.106;18.046;2023-04-25T13:42:28;2.10;;;1.70;;
76729;SDS011;65653;53.106;18.046;2023-04-25T13:44:55;3.70;;;1.60;;
76729;SDS011;65653;53.106;18.046;2023-04-25T13:47:21;2.20;;;1.40;;
76729;SDS011;65653;53.106;18.046;2023-04-25T13:49:49;2.90;;;1.70;;
76729;SDS011;65653;53.106;18.046;2023-04-25T13:52:16;1.70;;;1.40;;
76729;SDS011;65653;53.106;18.046;2023-04-25T13:54:43;2.90;;;1.50;;
76729;SDS011;65653;53.106;18.046;2023-04-25T13:57:09;2.40;;;1.30;;
76729;SDS011;65653;53.106;18.046;2023-04-25T13:59:37;2.90;;;1.30;;
76729;SDS011;65653;53.106;18.046;2023-04-25T14:02:04;2.90;;;1.60;;
76729;SDS011;65653;53.106;18.046;2023-04-25T14:04:30;2.50;;;1.50;;
76729;SDS011;65653;53.106;18.046;2023-04-25T14:06:57;1.60;;;1.30;;
76729;SDS011;65653;53.106;18.046;2023-04-25T14:09:23;2.70;;;1.50;;
76729;SDS011;65653;53.106;18.046;2023-04-25T14:11:51;5.30;;;1.40;;
76729;SDS011;65653;53.106;18.046;2023-04-25T14:14:19;2.10;;;1.00;;
76729;SDS011;65653;53.106;18.046;2023-04-25T14:16:46;3.80;;;1.40;;
76729;SDS011;65653;53.106;18.046;2023-04-25T14:19:14;3.30;;;1.30;;
76729;SDS011;65653;53.106;18.046;2023-04-25T14:21:41;2.30;;;1.20;;
76729;SDS011;65653;53.106;18.046;2023-04-25T14:24:08;3.80;;;1.40;;
76729;SDS011;65653;53.106;18.046;2023-04-25T14:26:37;2.50;;;1.00;;
76729;SDS011;65653;53.106;18.046;2023-04-25T14:29:04;3.70;;;1.10;;
76729;SDS011;65653;53.106;18.046;2023-04-25T14:31:32;1.60;;;1.10;;
76729;SDS011;65653;53.106;18.046;2023-04-25T14:33:59;4.40;;;1.00;;
76729;SDS011;65653;53.106;18.046;2023-04-25T14:36:27;0.80;;;0.70;;
76729;SDS011;65653;53.106;18.046;2023-04-25T14:38:54;1.60;;;1.10;;
76729;SDS011;65653;53.106;18.046;2023-04-25T14:41:21;2.10;;;1.00;;